createdAt,value
2023-02-16T00:00:06.332Z,16.48
2023-02-16T00:03:20.790Z,16.47
2023-02-16T00:06:24.420Z,16.45
2023-02-16T00:09:25.896Z,16.43
2023-02-16T00:12:45.967Z,16.42
2023-02-16T00:15:47.792Z,16.41
2023-02-16T00:18:50.077Z,16.39
2023-02-16T00:21:54.028Z,16.39
2023-02-16T00:24:55.484Z,16.38
2023-02-16T00:27:57.454Z,16.37
2023-02-16T00:30:59.008Z,16.35
2023-02-16T00:34:23.016Z,16.35
2023-02-16T00:37:24.488Z,16.33
2023-02-16T00:40:25.978Z,16.31
2023-02-16T00:43:29.373Z,16.32
2023-02-16T00:46:30.998Z,16.30
2023-02-16T00:49:32.479Z,16.30
2023-02-16T00:52:37.131Z,16.30
2023-02-16T00:55:39.942Z,16.31
2023-02-16T00:58:41.465Z,16.30
2023-02-16T01:01:44.430Z,16.32
2023-02-16T01:04:45.948Z,16.31
2023-02-16T01:08:06.386Z,16.33
2023-02-16T01:11:09.936Z,16.34
2023-02-16T01:14:13.251Z,16.34
2023-02-16T01:17:14.739Z,16.34
2023-02-16T01:20:23.294Z,16.35
2023-02-16T01:23:24.799Z,16.35
2023-02-16T01:26:26.499Z,16.34
2023-02-16T01:29:27.979Z,16.34
2023-02-16T01:32:29.440Z,16.35
2023-02-16T01:35:33.798Z,16.34
2023-02-16T01:38:35.311Z,16.33
2023-02-16T01:41:36.715Z,16.33
2023-02-16T01:44:48.152Z,16.32
2023-02-16T01:47:53.112Z,16.30
2023-02-16T01:51:04.790Z,16.30
2023-02-16T01:54:11.900Z,16.28
2023-02-16T01:57:27.503Z,16.26
2023-02-16T02:00:57.069Z,16.25
2023-02-16T02:04:17.484Z,16.21
2023-02-16T02:07:28.699Z,16.20
2023-02-16T02:11:12.232Z,16.19
2023-02-16T02:14:38.201Z,16.17
2023-02-16T02:17:39.838Z,16.14
2023-02-16T02:21:08.060Z,16.13
2023-02-16T02:24:52.518Z,16.13
2023-02-16T02:28:26.950Z,16.11
2023-02-16T02:31:42.116Z,16.09
2023-02-16T02:35:16.920Z,16.08
2023-02-16T02:38:36.446Z,16.07
2023-02-16T02:42:02.920Z,16.06
2023-02-16T02:45:13.602Z,16.06
2023-02-16T02:48:15.510Z,16.07
2023-02-16T02:51:29.931Z,16.08
2023-02-16T02:54:58.771Z,16.09
2023-02-16T02:58:20.430Z,16.09
2023-02-16T03:01:23.947Z,16.09
2023-02-16T03:04:29.928Z,16.11
2023-02-16T03:07:48.031Z,16.10
2023-02-16T03:11:22.735Z,16.11
2023-02-16T03:14:34.637Z,16.09
2023-02-16T03:17:57.516Z,16.09
2023-02-16T03:21:18.579Z,16.08
2023-02-16T03:24:46.445Z,16.08
2023-02-16T03:28:06.817Z,16.06
2023-02-16T03:31:12.485Z,16.07
2023-02-16T03:34:17.784Z,16.06
2023-02-16T03:37:19.459Z,16.05
2023-02-16T03:40:30.815Z,16.05
2023-02-16T03:43:32.526Z,16.04
2023-02-16T03:46:34.262Z,16.03
2023-02-16T03:49:35.757Z,16.01
2023-02-16T03:52:37.454Z,16.00
2023-02-16T03:55:44.790Z,16.01
2023-02-16T03:58:46.317Z,16.00
2023-02-16T04:01:47.834Z,16.00
2023-02-16T04:04:49.382Z,16.00
2023-02-16T04:07:50.918Z,16.01
2023-02-16T04:10:54.084Z,16.02
2023-02-16T04:13:55.549Z,16.04
2023-02-16T04:16:57.082Z,16.06
2023-02-16T04:19:58.731Z,16.08
2023-02-16T04:23:01.293Z,16.11
2023-02-16T04:26:02.796Z,16.12
2023-02-16T04:29:04.320Z,16.15
2023-02-16T04:32:06.028Z,16.18
2023-02-16T04:35:08.472Z,16.21
2023-02-16T04:38:09.977Z,16.23
2023-02-16T04:41:11.508Z,16.26
2023-02-16T04:44:13.538Z,16.29
2023-02-16T04:47:15.440Z,16.30
2023-02-16T04:50:16.981Z,16.32
2023-02-16T04:53:18.673Z,16.34
2023-02-16T04:56:20.230Z,16.35
2023-02-16T04:59:21.985Z,16.35
2023-02-16T05:02:23.485Z,16.36
2023-02-16T05:05:25.083Z,16.36
2023-02-16T05:08:26.868Z,16.36
2023-02-16T05:11:47.024Z,16.36
2023-02-16T05:14:48.631Z,16.34
2023-02-16T05:17:50.186Z,16.34
2023-02-16T05:21:10.587Z,16.33
2023-02-16T05:24:12.331Z,16.32
2023-02-16T05:27:25.840Z,16.33
2023-02-16T05:30:27.380Z,16.30
2023-02-16T05:33:28.905Z,16.29
2023-02-16T05:36:30.517Z,16.28
2023-02-16T05:39:32.055Z,16.26
2023-02-16T05:42:33.536Z,16.25
2023-02-16T05:45:35.058Z,16.22
2023-02-16T05:48:36.540Z,16.21
2023-02-16T05:51:38.296Z,16.21
2023-02-16T05:54:39.824Z,16.20
2023-02-16T05:57:41.358Z,16.19
2023-02-16T06:00:43.441Z,16.20
2023-02-16T06:03:45.018Z,16.21
2023-02-16T06:06:47.224Z,16.23
2023-02-16T06:09:48.699Z,16.24
2023-02-16T06:12:50.228Z,16.26
2023-02-16T06:15:56.631Z,16.28
2023-02-16T06:18:58.779Z,16.30
2023-02-16T06:22:00.302Z,16.32
2023-02-16T06:25:01.929Z,16.35
2023-02-16T06:28:03.576Z,16.37
2023-02-16T06:31:05.433Z,16.37
2023-02-16T06:34:07.520Z,16.39
2023-02-16T06:37:09.149Z,16.40
2023-02-16T06:40:14.158Z,16.40
2023-02-16T06:43:15.675Z,16.41
2023-02-16T06:46:17.210Z,16.41
2023-02-16T06:49:20.759Z,16.42
2023-02-16T06:52:22.534Z,16.41
2023-02-16T06:55:24.017Z,16.42
2023-02-16T06:58:25.474Z,16.40
2023-02-16T07:01:27.070Z,16.40
2023-02-16T07:04:28.731Z,16.39
2023-02-16T07:07:31.135Z,16.39
2023-02-16T07:10:47.439Z,16.37
2023-02-16T07:13:50.942Z,16.37
2023-02-16T07:16:52.428Z,16.35
2023-02-16T07:19:54.066Z,16.34
2023-02-16T07:22:55.677Z,16.32
2023-02-16T07:25:57.129Z,16.30
2023-02-16T07:28:59.025Z,16.28
2023-02-16T07:32:01.960Z,16.26
2023-02-16T07:35:04.733Z,16.25
2023-02-16T07:38:06.304Z,16.23
2023-02-16T07:41:09.913Z,16.22
2023-02-16T07:44:11.820Z,16.20
2023-02-16T07:47:14.344Z,16.18
2023-02-16T07:50:16.463Z,16.15
2023-02-16T07:53:18.108Z,16.14
2023-02-16T07:56:22.368Z,16.13
2023-02-16T07:59:24.164Z,16.10
2023-02-16T08:02:27.380Z,16.08
2023-02-16T08:05:29.076Z,16.07
2023-02-16T08:08:31.892Z,16.05
2023-02-16T08:11:33.487Z,16.05
2023-02-16T08:14:34.958Z,16.03
2023-02-16T08:17:36.554Z,16.02
2023-02-16T08:20:57.699Z,16.01
2023-02-16T08:24:01.572Z,16.00
2023-02-16T08:27:04.583Z,15.99
2023-02-16T08:30:12.413Z,15.97
2023-02-16T08:33:13.928Z,15.95
2023-02-16T08:36:26.348Z,15.96
2023-02-16T08:39:31.256Z,15.94
2023-02-16T08:42:32.745Z,15.92
2023-02-16T08:45:34.283Z,15.91
2023-02-16T08:48:36.356Z,15.91
2023-02-16T08:51:44.472Z,15.92
2023-02-16T08:54:45.953Z,15.91
2023-02-16T08:57:47.421Z,15.92
2023-02-16T09:00:49.637Z,15.94
2023-02-16T09:03:51.722Z,15.95
2023-02-16T09:06:53.472Z,15.95
2023-02-16T09:09:55.028Z,15.97
2023-02-16T09:12:56.470Z,15.97
2023-02-16T09:16:29.184Z,15.99
2023-02-16T09:19:30.696Z,15.97
2023-02-16T09:22:32.910Z,15.97
2023-02-16T09:25:36.001Z,15.97
2023-02-16T09:28:38.243Z,15.97
2023-02-16T09:31:40.157Z,15.97
2023-02-16T09:34:43.618Z,15.96
2023-02-16T09:37:45.113Z,15.96
2023-02-16T09:40:46.966Z,15.96
2023-02-16T09:44:03.261Z,15.97
2023-02-16T09:47:12.252Z,15.97
2023-02-16T09:50:27.756Z,15.97
2023-02-16T09:53:43.855Z,15.98
2023-02-16T09:56:56.574Z,15.99
2023-02-16T10:00:08.174Z,16.00
2023-02-16T10:03:34.412Z,16.02
2023-02-16T10:06:58.337Z,16.03
2023-02-16T10:10:02.663Z,16.02
2023-02-16T10:13:12.879Z,16.02
2023-02-16T10:16:28.550Z,16.02
2023-02-16T10:19:38.241Z,16.03
2023-02-16T10:22:52.816Z,16.03
2023-02-16T10:26:10.867Z,16.01
2023-02-16T10:29:19.055Z,16.01
2023-02-16T10:32:33.935Z,16.00
2023-02-16T10:35:39.872Z,15.98
2023-02-16T10:38:54.432Z,16.00
2023-02-16T10:42:04.219Z,15.99
2023-02-16T10:45:27.170Z,15.99
2023-02-16T10:48:28.792Z,15.98
2023-02-16T10:51:37.368Z,15.98
2023-02-16T10:54:39.421Z,15.97
2023-02-16T10:57:41.192Z,15.99
2023-02-16T11:00:58.895Z,16.01
2023-02-16T11:04:00.389Z,16.01
2023-02-16T11:07:09.566Z,16.04
2023-02-16T11:10:23.010Z,16.06
2023-02-16T11:13:34.232Z,16.07
2023-02-16T11:16:35.973Z,16.07
2023-02-16T11:19:38.834Z,16.07
2023-02-16T11:22:41.504Z,16.07
2023-02-16T11:26:12.419Z,16.09
2023-02-16T11:29:19.528Z,16.08
2023-02-16T11:32:24.017Z,16.09
2023-02-16T11:35:25.659Z,16.09
2023-02-16T11:38:33.419Z,16.07
2023-02-16T11:41:35.633Z,16.09
2023-02-16T11:44:41.250Z,16.09
2023-02-16T11:47:43.058Z,16.07
2023-02-16T11:51:06.614Z,16.09
2023-02-16T11:54:17.670Z,16.08
2023-02-16T11:57:29.560Z,16.07
2023-02-16T12:00:31.650Z,16.05
2023-02-16T12:03:43.877Z,16.05
2023-02-16T12:06:57.967Z,16.05
2023-02-16T12:10:00.011Z,16.02
2023-02-16T12:13:28.774Z,16.03
2023-02-16T12:16:41.620Z,16.01
2023-02-16T12:19:53.364Z,16.01
2023-02-16T12:23:23.036Z,16.00
2023-02-16T12:26:40.037Z,16.00
2023-02-16T12:29:59.179Z,15.99
2023-02-16T12:33:17.899Z,15.97
2023-02-16T12:36:28.317Z,15.98
2023-02-16T12:40:11.905Z,15.97
2023-02-16T12:43:28.559Z,15.95
2023-02-16T12:46:37.820Z,15.94
2023-02-16T12:49:44.826Z,15.94
2023-02-16T12:52:52.913Z,15.92
2023-02-16T12:56:00.315Z,15.91
2023-02-16T12:59:48.741Z,15.91
2023-02-16T13:02:56.919Z,15.91
2023-02-16T13:06:08.474Z,15.91
2023-02-16T13:09:51.426Z,15.90
2023-02-16T13:13:12.443Z,15.90
2023-02-16T13:16:30.606Z,15.89
2023-02-16T13:19:32.556Z,15.88
2023-02-16T13:22:56.174Z,15.89
2023-02-16T13:26:10.800Z,15.91
2023-02-16T13:29:37.509Z,15.93
2023-02-16T13:32:46.470Z,15.95
2023-02-16T13:35:51.775Z,15.96
2023-02-16T13:38:56.254Z,15.98
2023-02-16T13:42:12.896Z,15.99
2023-02-16T13:45:33.820Z,15.99
2023-02-16T13:48:46.360Z,15.99
2023-02-16T13:51:48.037Z,15.98
2023-02-16T13:54:50.001Z,15.99
2023-02-16T13:58:14.254Z,16.01
2023-02-16T14:01:39.013Z,16.00
2023-02-16T14:04:40.638Z,15.99
2023-02-16T14:07:43.223Z,15.99
2023-02-16T14:10:53.587Z,15.99
2023-02-16T14:13:55.257Z,15.97
2023-02-16T14:17:15.652Z,15.96
2023-02-16T14:20:17.076Z,15.96
2023-02-16T14:23:34.226Z,15.95
2023-02-16T14:26:53.646Z,15.95
2023-02-16T14:30:01.547Z,15.92
2023-02-16T14:33:12.181Z,15.92
2023-02-16T14:36:19.276Z,15.90
2023-02-16T14:39:22.885Z,15.90
2023-02-16T14:42:30.593Z,15.91
2023-02-16T14:45:56.698Z,15.90
2023-02-16T14:49:30.010Z,15.88
2023-02-16T14:52:50.058Z,15.85
2023-02-16T14:56:11.730Z,15.85
2023-02-16T14:59:31.938Z,15.85
2023-02-16T15:02:35.179Z,15.82
2023-02-16T15:05:37.825Z,15.82
2023-02-16T15:08:48.590Z,15.82
2023-02-16T15:12:15.402Z,15.82
2023-02-16T15:15:20.369Z,15.82
2023-02-16T15:18:27.092Z,15.80
2023-02-16T15:21:28.670Z,15.80
2023-02-16T15:24:31.101Z,15.79
2023-02-16T15:27:35.452Z,15.78
2023-02-16T15:30:41.142Z,15.78
2023-02-16T15:33:52.285Z,15.77
2023-02-16T15:36:53.759Z,15.77
2023-02-16T15:40:23.147Z,15.77
2023-02-16T15:43:30.925Z,15.79
2023-02-16T15:46:39.641Z,15.80
2023-02-16T15:49:41.322Z,15.82
2023-02-16T15:52:42.874Z,15.85
2023-02-16T15:55:47.171Z,15.89
2023-02-16T15:58:50.001Z,15.93
2023-02-16T16:02:01.065Z,15.96
2023-02-16T16:05:06.264Z,15.99
2023-02-16T16:08:17.354Z,16.01
2023-02-16T16:11:18.992Z,16.02
2023-02-16T16:14:21.866Z,15.98
2023-02-16T16:17:30.239Z,15.98
2023-02-16T16:20:33.822Z,15.97
2023-02-16T16:23:35.305Z,15.98
2023-02-16T16:26:58.401Z,16.03
2023-02-16T16:30:21.245Z,16.05
2023-02-16T16:33:22.757Z,16.05
2023-02-16T16:36:41.675Z,16.11
2023-02-16T16:39:43.271Z,16.13
2023-02-16T16:43:16.870Z,16.19
2023-02-16T16:46:26.652Z,16.19
2023-02-16T16:49:28.212Z,16.21
2023-02-16T16:52:38.684Z,16.22
2023-02-16T16:55:40.166Z,16.22
2023-02-16T16:58:42.274Z,16.24
2023-02-16T17:01:45.867Z,16.24
2023-02-16T17:04:47.427Z,16.25
2023-02-16T17:07:50.049Z,16.26
2023-02-16T17:10:51.736Z,16.28
2023-02-16T17:13:54.786Z,16.28
2023-02-16T17:16:56.866Z,16.28
2023-02-16T17:19:58.355Z,16.29
2023-02-16T17:23:04.492Z,16.29
2023-02-16T17:26:06.979Z,16.31
2023-02-16T17:29:09.005Z,16.33
2023-02-16T17:32:10.603Z,16.33
2023-02-16T17:35:12.216Z,16.35
2023-02-16T17:38:18.576Z,16.37
2023-02-16T17:41:23.430Z,16.38
2023-02-16T17:44:24.933Z,16.38
2023-02-16T17:47:26.444Z,16.40
2023-02-16T17:50:30.181Z,16.40
2023-02-16T17:53:31.674Z,16.40
2023-02-16T17:56:33.208Z,16.43
2023-02-16T17:59:34.784Z,16.44
2023-02-16T18:02:36.214Z,16.45
2023-02-16T18:05:38.498Z,16.47
2023-02-16T18:08:40.699Z,16.48
2023-02-16T18:11:42.572Z,16.52
2023-02-16T18:14:44.115Z,16.54
2023-02-16T18:17:45.559Z,16.59
2023-02-16T18:20:47.727Z,16.62
2023-02-16T18:23:49.189Z,16.64
2023-02-16T18:26:51.820Z,16.65
2023-02-16T18:29:53.384Z,16.67
2023-02-16T18:32:54.909Z,16.67
2023-02-16T18:35:57.511Z,16.69
2023-02-16T18:38:59.011Z,16.71
2023-02-16T18:42:00.542Z,16.72
2023-02-16T18:45:02.370Z,16.72
2023-02-16T18:48:04.385Z,16.73
2023-02-16T18:51:07.375Z,16.75
2023-02-16T18:54:08.842Z,16.73
2023-02-16T18:57:10.494Z,16.74
2023-02-16T19:00:14.590Z,16.74
2023-02-16T19:03:16.177Z,16.73
2023-02-16T19:06:17.751Z,16.73
2023-02-16T19:09:20.173Z,16.74
2023-02-16T19:12:21.758Z,16.74
2023-02-16T19:15:23.474Z,16.76
2023-02-16T19:18:26.611Z,16.78
2023-02-16T19:21:28.106Z,16.78
2023-02-16T19:24:30.878Z,16.79
2023-02-16T19:27:32.745Z,16.81
2023-02-16T19:30:34.370Z,16.82
2023-02-16T19:33:36.207Z,16.83
2023-02-16T19:36:37.818Z,16.84
2023-02-16T19:39:39.327Z,16.86
2023-02-16T19:42:40.880Z,16.87
2023-02-16T19:45:42.884Z,16.89
2023-02-16T19:48:45.918Z,16.92
2023-02-16T19:51:47.674Z,16.94
2023-02-16T19:54:49.412Z,16.97
2023-02-16T19:57:50.934Z,16.98
2023-02-16T20:00:52.537Z,17.01
2023-02-16T20:03:56.279Z,17.02
2023-02-16T20:06:57.843Z,17.02
2023-02-16T20:09:59.339Z,17.02
2023-02-16T20:13:01.324Z,17.04
2023-02-16T20:16:04.940Z,17.05
2023-02-16T20:19:06.762Z,17.05
2023-02-16T20:22:08.384Z,17.05
2023-02-16T20:25:10.419Z,17.06
2023-02-16T20:28:11.875Z,17.08
2023-02-16T20:31:26.459Z,17.09
2023-02-16T20:34:28.046Z,17.09
2023-02-16T20:37:30.174Z,17.09
2023-02-16T20:40:31.737Z,17.08
2023-02-16T20:43:33.959Z,17.09
2023-02-16T20:46:37.172Z,17.11
2023-02-16T20:49:38.733Z,17.11
2023-02-16T20:52:40.320Z,17.11
2023-02-16T20:55:41.824Z,17.12
2023-02-16T20:58:44.837Z,17.12
2023-02-16T21:01:47.113Z,17.13
2023-02-16T21:04:48.603Z,17.13
2023-02-16T21:07:50.157Z,17.12
2023-02-16T21:10:51.589Z,17.13
2023-02-16T21:13:53.555Z,17.15
2023-02-16T21:16:56.559Z,17.17
2023-02-16T21:19:58.162Z,17.16
2023-02-16T21:23:03.361Z,17.17
2023-02-16T21:26:06.021Z,17.19
2023-02-16T21:29:07.782Z,17.21
2023-02-16T21:32:09.701Z,17.22
2023-02-16T21:35:11.275Z,17.21
2023-02-16T21:38:12.817Z,17.21
2023-02-16T21:41:24.955Z,17.22
2023-02-16T21:44:28.313Z,17.20
2023-02-16T21:47:48.690Z,17.22
2023-02-16T21:50:50.173Z,17.21
2023-02-16T21:53:53.264Z,17.20
2023-02-16T21:56:54.743Z,17.18
2023-02-16T21:59:56.568Z,17.17
2023-02-16T22:02:58.580Z,17.19
2023-02-16T22:06:05.413Z,17.21
2023-02-16T22:09:10.416Z,17.20
2023-02-16T22:12:11.995Z,17.19
2023-02-16T22:15:13.524Z,17.17
2023-02-16T22:18:15.033Z,17.16
2023-02-16T22:21:17.276Z,17.16
2023-02-16T22:24:19.306Z,17.17
2023-02-16T22:27:20.762Z,17.17
2023-02-16T22:30:22.380Z,17.15
2023-02-16T22:33:24.244Z,17.17
2023-02-16T22:36:26.336Z,17.17
2023-02-16T22:39:28.296Z,17.16
2023-02-16T22:42:31.458Z,17.17
2023-02-16T22:45:34.405Z,17.19
2023-02-16T22:48:36.237Z,17.19
2023-02-16T22:51:38.108Z,17.18
2023-02-16T22:54:39.624Z,17.17
2023-02-16T22:57:41.123Z,17.16
2023-02-16T23:00:48.572Z,17.15
2023-02-16T23:03:53.513Z,17.15
2023-02-16T23:06:55.041Z,17.12
2023-02-16T23:09:56.497Z,17.12
2023-02-16T23:12:58.016Z,17.11
2023-02-16T23:16:23.766Z,17.11
2023-02-16T23:19:26.830Z,17.10
2023-02-16T23:22:29.701Z,17.07
2023-02-16T23:25:33.960Z,17.07
2023-02-16T23:28:37.280Z,17.07
2023-02-16T23:31:40.949Z,17.05
2023-02-16T23:34:43.988Z,17.04
2023-02-16T23:37:46.587Z,17.03
2023-02-16T23:40:58.822Z,17.03
2023-02-16T23:44:01.269Z,17.00
2023-02-16T23:47:02.875Z,16.98
2023-02-16T23:50:04.748Z,16.99
2023-02-16T23:53:06.263Z,16.98
2023-02-16T23:56:13.130Z,16.99
2023-02-16T23:59:14.668Z,16.97
